KPHL/PHL METAR and TAF weather

Enter ICAO airport designator
Station Type Date Time Source
KPHL METAR 2022/01/29 11:54 UTC NOAA

KPHL 291154Z 34017G26KT 1 3/4SM -SN BLSN FEW012 OVC019 M04/M07 A2974 RMK AO2 PK WND 34031/1125 SLP072 P0000 60014 70028 T10441072 11006 21044 55013


Station Type Date Time Source
KPHL Decoded METAR 2022/01/29 11:54 UTC NOAA

PHILADELPHIA INTERNATIONAL AIRPT, PA, United States (KPHL) 39-52N 075-14W 18M
Jan 29, 2022 - 06:54 AM EST / 2022.01.29 1154 UTC
Wind: from the NNW (340 degrees) at 20 MPH (17 KT) gusting to 30 MPH (26 KT):0
Visibility: 1 3/4 mile(s):0
Sky conditions: overcast
Weather: light snow; blowing snow
Precipitation last hour: A trace
Temperature: 24.1 F (-4.4 C)
Windchill: 10 F (-12 C):1
Dew Point: 19.0 F (-7.2 C)
Relative Humidity: 80%
Pressure (altimeter): 29.74 in. Hg (1007 hPa)
Pressure tendency: 0.04 inches (1.3 hPa) lower than three hours ago
ob: KPHL 291154Z 34017G26KT 1 3/4SM -SN BLSN FEW012 OVC019 M04/M07 A2974 RMK AO2 PK WND 34031/1125 SLP072 P0000 60014 70028 T10441072 11006 21044 55013
cycle: 12

Station Type Date Time Source
KPHL TAF 2022/01/29 12:30 UTC NOAA

TAF KPHL 291124Z 2912/3018 35020G30KT 2SM -SN BLSN SCT015 OVC035
TEMPO 2912/2915 1SM -SN BLSN OVC015
FM291800 33020G30KT 3SM BLSN FEW020 OVC060
FM292300 31015G23KT 6SM BLSN SCT200
FM300500 30010KT P6SM FEW200

Example: see airport list